createdAt,value
2022-10-22T00:00:03.776Z,0
2022-10-22T00:01:00.929Z,0
2022-10-22T00:02:00.882Z,0
2022-10-22T00:03:00.655Z,0
2022-10-22T00:04:00.566Z,0
2022-10-22T00:05:00.648Z,0
2022-10-22T00:06:00.871Z,0
2022-10-22T00:07:00.594Z,0
2022-10-22T00:08:00.637Z,0
2022-10-22T00:09:00.686Z,0
2022-10-22T00:10:00.627Z,0
2022-10-22T00:11:06.568Z,0
2022-10-22T00:12:00.594Z,0
2022-10-22T00:13:00.519Z,0
2022-10-22T00:14:00.527Z,0
2022-10-22T00:15:00.518Z,0
2022-10-22T00:16:00.997Z,0
2022-10-22T00:17:00.881Z,0
2022-10-22T00:18:00.605Z,0
2022-10-22T00:19:00.626Z,0
2022-10-22T00:20:00.705Z,0
2022-10-22T00:21:00.953Z,0
2022-10-22T00:22:03.539Z,0
2022-10-22T00:23:00.699Z,0
2022-10-22T00:24:00.634Z,0
2022-10-22T00:25:00.607Z,0
2022-10-22T00:26:00.955Z,0
2022-10-22T00:27:00.730Z,0
2022-10-22T00:28:00.502Z,0
2022-10-22T00:29:00.582Z,0
2022-10-22T00:30:00.513Z,0
2022-10-22T00:31:00.957Z,0
2022-10-22T00:32:00.872Z,0
2022-10-22T00:33:03.572Z,0
2022-10-22T00:34:00.609Z,0
2022-10-22T00:35:00.487Z,0
2022-10-22T00:36:00.950Z,0
2022-10-22T00:37:00.605Z,0
2022-10-22T00:38:00.502Z,0
2022-10-22T00:39:00.674Z,0
2022-10-22T00:40:00.519Z,0
2022-10-22T00:42:08.821Z,0
2022-10-22T00:43:08.765Z,0
2022-10-22T00:44:08.861Z,0
2022-10-22T00:45:09.211Z,0
2022-10-22T00:46:08.906Z,0
2022-10-22T00:47:14.929Z,0
2022-10-22T00:48:08.847Z,0
2022-10-22T00:49:08.778Z,0
2022-10-22T00:50:09.134Z,0
2022-10-22T00:51:08.882Z,0
2022-10-22T00:52:08.867Z,0
2022-10-22T00:53:08.878Z,0
2022-10-22T00:54:08.761Z,0
2022-10-22T00:55:09.207Z,0
2022-10-22T00:56:08.845Z,0
2022-10-22T00:57:08.771Z,0
2022-10-22T00:58:11.774Z,0
2022-10-22T01:00:15.993Z,0
2022-10-22T01:01:15.724Z,0
2022-10-22T01:02:15.929Z,0
2022-10-22T01:03:15.731Z,0
2022-10-22T01:04:15.648Z,0
2022-10-22T01:05:21.677Z,0
2022-10-22T01:06:15.680Z,0
2022-10-22T01:07:15.700Z,0
2022-10-22T01:08:15.787Z,0
2022-10-22T01:09:15.718Z,0
2022-10-22T01:10:16.114Z,0
2022-10-22T01:11:15.637Z,0
2022-10-22T01:12:15.627Z,0
2022-10-22T01:13:15.773Z,0
2022-10-22T01:14:15.812Z,0
2022-10-22T01:15:16.076Z,0
2022-10-22T01:16:18.642Z,0
2022-10-22T01:17:16.025Z,0
2022-10-22T01:18:15.666Z,0
2022-10-22T01:19:15.563Z,0
2022-10-22T01:20:15.996Z,0
2022-10-22T01:21:15.645Z,0
2022-10-22T01:22:15.552Z,0
2022-10-22T01:23:15.572Z,0
2022-10-22T01:24:15.701Z,0
2022-10-22T01:25:15.926Z,0
2022-10-22T01:26:15.725Z,0
2022-10-22T01:27:18.695Z,0
2022-10-22T01:28:15.685Z,0
2022-10-22T01:29:15.692Z,0
2022-10-22T01:30:15.998Z,0
2022-10-22T01:31:15.747Z,0
2022-10-22T01:32:15.999Z,0
2022-10-22T01:33:15.706Z,0
2022-10-22T01:34:15.564Z,0
2022-10-22T01:35:15.996Z,0
2022-10-22T01:36:15.701Z,0
2022-10-22T01:37:15.592Z,0
2022-10-22T01:38:18.636Z,0
2022-10-22T01:39:15.634Z,0
2022-10-22T01:40:16.218Z,0
2022-10-22T01:41:15.633Z,0
2022-10-22T01:42:15.674Z,0
2022-10-22T01:43:15.564Z,0
2022-10-22T01:44:15.575Z,0
2022-10-22T01:45:15.998Z,0
2022-10-22T01:46:15.768Z,0
2022-10-22T01:47:15.922Z,0
2022-10-22T01:48:15.672Z,0
2022-10-22T01:49:18.572Z,0
2022-10-22T01:50:15.924Z,0
2022-10-22T01:51:15.762Z,0
2022-10-22T01:52:15.748Z,0
2022-10-22T01:53:15.762Z,0
2022-10-22T01:54:15.638Z,0
2022-10-22T01:55:15.919Z,0
2022-10-22T01:56:15.642Z,0
2022-10-22T01:57:15.761Z,0
2022-10-22T01:58:15.729Z,0
2022-10-22T01:59:15.697Z,0
2022-10-22T02:00:21.610Z,0
2022-10-22T02:01:15.758Z,0
2022-10-22T02:02:16.001Z,0
2022-10-22T02:03:18.596Z,0
2022-10-22T02:04:15.559Z,0
2022-10-22T02:05:16.003Z,0
2022-10-22T02:06:15.666Z,0
2022-10-22T02:07:15.550Z,0
2022-10-22T02:08:15.558Z,0
2022-10-22T02:09:15.714Z,0
2022-10-22T02:10:16.003Z,0
2022-10-22T02:11:18.816Z,0
2022-10-22T02:12:15.663Z,0
2022-10-22T02:13:15.708Z,0
2022-10-22T02:14:15.649Z,0
2022-10-22T02:15:16.051Z,0
2022-10-22T02:16:15.846Z,0
2022-10-22T02:17:15.919Z,0
2022-10-22T02:18:15.674Z,0
2022-10-22T02:19:15.701Z,0
2022-10-22T02:20:16.002Z,0
2022-10-22T02:21:15.644Z,0
2022-10-22T02:22:18.600Z,0
2022-10-22T02:23:15.642Z,0
2022-10-22T02:24:15.669Z,0
2022-10-22T02:25:15.931Z,0
2022-10-22T02:26:15.749Z,0
2022-10-22T02:27:15.712Z,0
2022-10-22T02:28:15.667Z,0
2022-10-22T02:29:15.676Z,0
2022-10-22T02:31:22.823Z,0
2022-10-22T02:32:23.323Z,0
2022-10-22T02:33:22.859Z,0
2022-10-22T02:34:22.888Z,0
2022-10-22T02:35:23.145Z,0
2022-10-22T02:36:25.924Z,0
2022-10-22T02:37:22.958Z,0
2022-10-22T02:38:22.901Z,0
2022-10-22T02:39:22.738Z,0
2022-10-22T02:40:23.159Z,0
2022-10-22T02:41:22.813Z,0
2022-10-22T02:42:22.783Z,0
2022-10-22T02:43:22.745Z,0
2022-10-22T02:44:22.967Z,0
2022-10-22T02:45:23.198Z,0
2022-10-22T02:46:22.901Z,0
2022-10-22T02:47:26.192Z,0
2022-10-22T02:48:22.833Z,0
2022-10-22T02:49:22.824Z,0
2022-10-22T02:50:23.174Z,0
2022-10-22T02:51:22.946Z,0
2022-10-22T02:52:22.828Z,0
2022-10-22T02:53:22.789Z,0
2022-10-22T02:54:22.766Z,0
2022-10-22T02:55:23.185Z,0
2022-10-22T02:56:22.867Z,0
2022-10-22T02:57:22.785Z,0
2022-10-22T02:58:26.037Z,0
2022-10-22T02:59:22.858Z,0
2022-10-22T03:00:23.197Z,0
2022-10-22T03:01:22.783Z,0
2022-10-22T03:02:22.885Z,0
2022-10-22T03:03:22.828Z,0
2022-10-22T03:04:22.874Z,0
2022-10-22T03:05:23.229Z,0
2022-10-22T03:06:22.968Z,0
2022-10-22T03:07:22.871Z,0
2022-10-22T03:08:22.955Z,0
2022-10-22T03:09:25.894Z,0
2022-10-22T03:10:23.227Z,0
2022-10-22T03:11:22.809Z,0
2022-10-22T03:12:22.853Z,0
2022-10-22T03:13:22.841Z,0
2022-10-22T03:14:22.842Z,0
2022-10-22T03:15:23.158Z,0
2022-10-22T03:16:22.741Z,0
2022-10-22T03:17:23.254Z,0
2022-10-22T03:18:22.795Z,0
2022-10-22T03:19:22.764Z,0
2022-10-22T03:20:26.100Z,0
2022-10-22T03:21:22.959Z,0
2022-10-22T03:22:22.744Z,0
2022-10-22T03:23:22.770Z,0
2022-10-22T03:24:22.824Z,0
2022-10-22T03:25:23.189Z,0
2022-10-22T03:26:22.843Z,0
2022-10-22T03:27:22.844Z,0
2022-10-22T03:28:22.964Z,0
2022-10-22T03:29:22.951Z,0
2022-10-22T03:30:23.230Z,0
2022-10-22T03:31:25.897Z,0
2022-10-22T03:32:22.830Z,0
2022-10-22T03:33:22.862Z,0
2022-10-22T03:34:22.812Z,0
2022-10-22T03:35:23.112Z,0
2022-10-22T03:36:22.885Z,0
2022-10-22T03:37:22.834Z,0
2022-10-22T03:38:22.906Z,0
2022-10-22T03:39:23.124Z,0
2022-10-22T03:40:22.846Z,0
2022-10-22T03:41:22.827Z,0
2022-10-22T03:42:25.732Z,0
2022-10-22T03:43:22.834Z,0
2022-10-22T03:44:23.113Z,0
2022-10-22T03:45:22.747Z,0
2022-10-22T03:46:22.788Z,0
2022-10-22T03:47:25.240Z,0
2022-10-22T03:48:22.910Z,0
2022-10-22T03:49:23.186Z,0
2022-10-22T03:50:22.821Z,0
2022-10-22T03:51:22.857Z,0
2022-10-22T03:52:22.740Z,0
2022-10-22T03:53:25.784Z,0
2022-10-22T03:54:23.140Z,0
2022-10-22T03:55:22.836Z,0
2022-10-22T03:56:22.927Z,0
2022-10-22T03:57:22.822Z,0
2022-10-22T03:58:22.743Z,0
2022-10-22T03:59:23.125Z,0
2022-10-22T04:00:22.727Z,0
2022-10-22T04:01:22.809Z,0
2022-10-22T04:02:23.234Z,0
2022-10-22T04:03:22.835Z,0
2022-10-22T04:04:28.797Z,0
2022-10-22T04:05:22.980Z,0
2022-10-22T04:06:22.955Z,0
2022-10-22T04:07:22.886Z,0
2022-10-22T04:08:22.925Z,0
2022-10-22T04:09:23.185Z,0
2022-10-22T04:10:22.895Z,0
2022-10-22T04:11:22.754Z,0
2022-10-22T04:12:22.874Z,0
2022-10-22T04:13:22.827Z,0
2022-10-22T04:14:23.186Z,0
2022-10-22T04:15:25.790Z,0
2022-10-22T04:16:25.051Z,0
2022-10-22T04:17:23.274Z,0
2022-10-22T04:18:22.816Z,0
2022-10-22T04:19:23.111Z,0
2022-10-22T04:20:22.742Z,0
2022-10-22T04:21:22.726Z,0
2022-10-22T04:22:22.857Z,0
2022-10-22T04:23:22.853Z,0
2022-10-22T04:24:23.212Z,0
2022-10-22T04:25:22.974Z,0
2022-10-22T04:26:25.891Z,0
2022-10-22T04:27:22.979Z,0
2022-10-22T04:28:22.933Z,0
2022-10-22T04:29:23.237Z,0
2022-10-22T04:30:22.900Z,0
2022-10-22T04:31:22.900Z,0
2022-10-22T04:32:23.266Z,0
2022-10-22T04:33:22.762Z,0
2022-10-22T04:34:23.195Z,0
2022-10-22T04:35:22.859Z,0
2022-10-22T04:36:22.759Z,0
2022-10-22T04:37:25.775Z,0
2022-10-22T04:38:22.827Z,0
2022-10-22T04:39:23.183Z,0
2022-10-22T04:40:22.960Z,0
2022-10-22T04:41:22.906Z,0
2022-10-22T04:42:22.973Z,0
2022-10-22T04:43:22.836Z,0
2022-10-22T04:44:23.187Z,0
2022-10-22T04:45:22.924Z,0
2022-10-22T04:46:22.854Z,0
2022-10-22T04:47:23.421Z,0
2022-10-22T04:48:25.805Z,0
2022-10-22T04:49:23.125Z,0
2022-10-22T04:50:22.968Z,0
2022-10-22T04:51:22.886Z,0
2022-10-22T04:52:22.808Z,0
2022-10-22T04:53:22.836Z,0
2022-10-22T04:54:23.534Z,0
2022-10-22T04:55:22.785Z,0
2022-10-22T04:56:22.782Z,0
2022-10-22T04:57:22.890Z,0
2022-10-22T04:58:22.824Z,0
2022-10-22T04:59:25.795Z,0
2022-10-22T05:00:22.824Z,0
2022-10-22T05:01:22.766Z,0
2022-10-22T05:02:23.402Z,0
2022-10-22T05:03:22.939Z,0
2022-10-22T05:04:23.187Z,0
2022-10-22T05:05:22.787Z,0
2022-10-22T05:06:22.748Z,0
2022-10-22T05:07:22.946Z,0
2022-10-22T05:08:22.913Z,0
2022-10-22T05:09:22.756Z,0
2022-10-22T05:10:25.760Z,0
2022-10-22T05:11:22.907Z,0
2022-10-22T05:12:22.857Z,0
2022-10-22T05:13:22.845Z,0
2022-10-22T05:14:23.115Z,0
2022-10-22T05:15:22.833Z,0
2022-10-22T05:16:22.762Z,0
2022-10-22T05:17:23.359Z,0
2022-10-22T05:18:23.919Z,0
2022-10-22T05:19:22.923Z,0
2022-10-22T05:20:22.766Z,0
2022-10-22T05:21:25.846Z,0
2022-10-22T05:22:23.088Z,0
2022-10-22T05:23:22.917Z,0
2022-10-22T05:24:22.756Z,0
2022-10-22T05:25:22.901Z,0
2022-10-22T05:26:24.219Z,0
2022-10-22T05:27:22.870Z,0
2022-10-22T05:28:22.747Z,0
2022-10-22T05:29:22.889Z,0
2022-10-22T05:30:22.932Z,0
2022-10-22T05:31:22.742Z,0
2022-10-22T05:32:25.904Z,0
2022-10-22T05:33:24.148Z,0
2022-10-22T05:34:23.123Z,0
2022-10-22T05:35:22.758Z,0
2022-10-22T05:36:22.741Z,0
2022-10-22T05:37:22.754Z,0
2022-10-22T05:38:22.859Z,0
2022-10-22T05:39:23.241Z,0
2022-10-22T05:40:30.471Z,0
2022-10-22T05:41:22.847Z,0
2022-10-22T05:42:22.876Z,0
2022-10-22T05:43:25.909Z,0
2022-10-22T05:44:22.922Z,0
2022-10-22T05:45:22.906Z,0
2022-10-22T05:46:23.255Z,0
2022-10-22T05:47:23.366Z,0
2022-10-22T05:48:23.008Z,0
2022-10-22T05:49:23.191Z,0
2022-10-22T05:50:22.858Z,0
2022-10-22T05:51:22.852Z,0
2022-10-22T05:52:22.758Z,0
2022-10-22T05:53:22.848Z,0
2022-10-22T05:54:25.861Z,0
2022-10-22T05:55:22.862Z,0
2022-10-22T05:56:22.870Z,0
2022-10-22T05:57:22.850Z,0
2022-10-22T05:58:22.962Z,0
2022-10-22T05:59:22.975Z,0
2022-10-22T06:00:22.849Z,0
2022-10-22T06:01:22.902Z,0
2022-10-22T06:02:23.340Z,0
2022-10-22T06:03:22.825Z,0
2022-10-22T06:04:23.198Z,0
2022-10-22T06:05:25.810Z,0
2022-10-22T06:06:22.868Z,0
2022-10-22T06:07:22.871Z,0
2022-10-22T06:08:22.759Z,0
2022-10-22T06:09:23.289Z,0
2022-10-22T06:10:22.821Z,0
2022-10-22T06:11:22.736Z,0
2022-10-22T06:12:22.755Z,0
2022-10-22T06:13:22.743Z,0
2022-10-22T06:14:23.186Z,0
2022-10-22T06:15:22.858Z,0
2022-10-22T06:16:25.731Z,0
2022-10-22T06:17:22.962Z,0
2022-10-22T06:18:22.745Z,0
2022-10-22T06:19:23.192Z,0
2022-10-22T06:20:22.910Z,0
2022-10-22T06:21:22.861Z,0
2022-10-22T06:22:22.911Z,0
2022-10-22T06:23:22.887Z,0
2022-10-22T06:24:22.942Z,0
2022-10-22T06:25:22.792Z,0
2022-10-22T06:26:22.768Z,0
2022-10-22T06:27:25.851Z,0
2022-10-22T06:29:31.512Z,0
2022-10-22T06:30:31.140Z,0
2022-10-22T06:31:31.156Z,0
2022-10-22T06:32:31.479Z,0
2022-10-22T06:33:31.249Z,0
2022-10-22T06:34:37.183Z,0
2022-10-22T06:35:31.098Z,0
2022-10-22T06:36:31.274Z,0
2022-10-22T06:37:31.119Z,0
2022-10-22T06:38:31.051Z,0
2022-10-22T06:39:31.471Z,0
2022-10-22T06:40:31.141Z,0
2022-10-22T06:41:31.012Z,0
2022-10-22T06:42:31.124Z,0
2022-10-22T06:43:31.217Z,0
2022-10-22T06:44:31.402Z,0
2022-10-22T06:45:34.111Z,0
2022-10-22T06:46:31.238Z,0
2022-10-22T06:47:31.396Z,0
2022-10-22T06:48:31.119Z,0
2022-10-22T06:49:31.469Z,0
2022-10-22T06:50:31.255Z,0
2022-10-22T06:51:31.140Z,0
2022-10-22T06:52:31.096Z,0
2022-10-22T06:53:31.139Z,0
2022-10-22T06:54:31.734Z,0
2022-10-22T06:55:31.118Z,0
2022-10-22T06:56:34.073Z,0
2022-10-22T06:57:31.032Z,0
2022-10-22T06:58:31.063Z,0
2022-10-22T06:59:31.466Z,0
2022-10-22T07:00:31.178Z,0
2022-10-22T07:01:31.327Z,0
2022-10-22T07:02:31.392Z,0
2022-10-22T07:03:31.069Z,0
2022-10-22T07:04:31.509Z,0
2022-10-22T07:05:31.104Z,0
2022-10-22T07:06:31.163Z,0
2022-10-22T07:07:34.140Z,0
2022-10-22T07:08:31.203Z,0
2022-10-22T07:09:31.496Z,0
2022-10-22T07:10:31.177Z,0
2022-10-22T07:11:31.001Z,0
2022-10-22T07:12:31.021Z,0
2022-10-22T07:13:31.040Z,0
2022-10-22T07:14:31.055Z,0
2022-10-22T07:15:31.402Z,0
2022-10-22T07:16:32.347Z,0
2022-10-22T07:17:31.514Z,0
2022-10-22T07:18:34.069Z,0
2022-10-22T07:19:31.388Z,0
2022-10-22T07:20:31.050Z,0
2022-10-22T07:21:31.023Z,0
2022-10-22T07:22:31.030Z,0
2022-10-22T07:23:31.037Z,0
2022-10-22T07:24:31.405Z,0
2022-10-22T07:25:31.140Z,0
2022-10-22T07:26:31.311Z,0
2022-10-22T07:27:31.135Z,0
2022-10-22T07:28:31.106Z,0
2022-10-22T07:29:37.076Z,0
2022-10-22T07:30:31.230Z,0
2022-10-22T07:31:31.209Z,0
2022-10-22T07:32:31.168Z,0
2022-10-22T07:33:31.148Z,0
2022-10-22T07:34:31.464Z,0
2022-10-22T07:35:31.154Z,0
2022-10-22T07:36:32.665Z,0
2022-10-22T07:37:31.172Z,0
2022-10-22T07:38:31.174Z,0
2022-10-22T07:39:31.621Z,0
2022-10-22T07:40:34.124Z,0
2022-10-22T07:41:30.997Z,0
2022-10-22T07:42:31.155Z,0
2022-10-22T07:43:31.074Z,0
2022-10-22T07:44:31.391Z,0
2022-10-22T07:45:31.175Z,0
2022-10-22T07:46:31.152Z,0
2022-10-22T07:47:31.466Z,0
2022-10-22T07:48:31.178Z,0
2022-10-22T07:49:31.464Z,0
2022-10-22T07:50:31.294Z,0
2022-10-22T07:51:34.127Z,0
2022-10-22T07:52:31.129Z,0
2022-10-22T07:53:31.146Z,0
2022-10-22T07:54:31.430Z,0
2022-10-22T07:55:31.131Z,0
2022-10-22T07:56:31.041Z,0
2022-10-22T07:57:31.168Z,0
2022-10-22T07:58:31.026Z,0
2022-10-22T07:59:31.049Z,0
2022-10-22T08:00:31.049Z,0
2022-10-22T08:01:31.395Z,0
2022-10-22T08:02:34.447Z,0
2022-10-22T08:03:31.208Z,0
2022-10-22T08:04:31.469Z,0
2022-10-22T08:05:31.125Z,0
2022-10-22T08:06:31.128Z,0
2022-10-22T08:07:31.051Z,0
2022-10-22T08:08:31.286Z,0
2022-10-22T08:09:31.035Z,0
2022-10-22T08:10:31.036Z,0
2022-10-22T08:11:30.996Z,0
2022-10-22T08:12:31.034Z,0
2022-10-22T08:13:34.101Z,0
2022-10-22T08:14:31.420Z,0
2022-10-22T08:15:31.114Z,0
2022-10-22T08:16:31.037Z,0
2022-10-22T08:17:31.464Z,0
2022-10-22T08:18:31.087Z,0
2022-10-22T08:19:31.397Z,0
2022-10-22T08:20:31.147Z,0
2022-10-22T08:21:31.178Z,0
2022-10-22T08:22:31.169Z,0
2022-10-22T08:23:31.210Z,0
2022-10-22T08:24:34.043Z,0
2022-10-22T08:25:31.210Z,0
2022-10-22T08:26:31.100Z,0
2022-10-22T08:27:31.129Z,0
2022-10-22T08:28:31.104Z,0
2022-10-22T08:29:31.465Z,83.80078125
2022-10-22T08:30:31.181Z,84.2646484375
2022-10-22T08:31:31.145Z,83.259765625
2022-10-22T08:32:31.241Z,83.5390625
2022-10-22T08:33:31.140Z,83.033203125
2022-10-22T08:34:31.461Z,82.0732421875
2022-10-22T08:35:34.059Z,80.734375
2022-10-22T08:36:31.099Z,78.904296875
2022-10-22T08:37:31.144Z,79.0302734375
2022-10-22T08:38:31.036Z,78.294921875
2022-10-22T08:39:31.397Z,78.095703125
2022-10-22T08:40:31.124Z,77.20703125
2022-10-22T08:41:31.090Z,76.2734375
2022-10-22T08:42:31.164Z,75.228515625
2022-10-22T08:43:31.223Z,74.8095703125
2022-10-22T08:44:31.497Z,74.9384765625
2022-10-22T08:45:31.099Z,75.810546875
2022-10-22T08:46:34.113Z,74.7080078125
2022-10-22T08:47:31.438Z,74.3818359375
2022-10-22T08:48:31.224Z,74.330078125
2022-10-22T08:49:31.443Z,74.3330078125
2022-10-22T08:50:31.042Z,73.7255859375
2022-10-22T08:51:31.023Z,73.4892578125
2022-10-22T08:52:31.102Z,73.8779296875
2022-10-22T08:53:31.163Z,73.158203125
2022-10-22T08:54:31.141Z,72.068359375
2022-10-22T08:55:36.427Z,72.94921875
2022-10-22T08:56:31.043Z,73.3876953125
2022-10-22T08:57:34.083Z,73.267578125
2022-10-22T08:58:31.220Z,72.1943359375
2022-10-22T08:59:31.468Z,71.935546875
2022-10-22T09:00:31.116Z,71.7412109375
2022-10-22T09:01:31.038Z,71.1806640625
2022-10-22T09:02:31.396Z,70.3955078125
2022-10-22T09:03:31.393Z,70.4580078125
2022-10-22T09:04:31.181Z,70.115234375
2022-10-22T09:05:31.183Z,70.048828125
2022-10-22T09:06:31.166Z,69.3671875
2022-10-22T09:07:31.240Z,68.7255859375
2022-10-22T09:08:37.212Z,69.0673828125
2022-10-22T09:09:31.243Z,68.8193359375
2022-10-22T09:10:31.175Z,69.0263671875
2022-10-22T09:11:31.103Z,68.9296875
2022-10-22T09:12:31.136Z,69.28515625
2022-10-22T09:13:31.386Z,69.4560546875
2022-10-22T09:14:31.043Z,69.1962890625
2022-10-22T09:15:31.050Z,68.591796875
2022-10-22T09:16:31.253Z,67.798828125
2022-10-22T09:17:31.431Z,66.255859375
2022-10-22T09:18:31.523Z,66.0009765625
2022-10-22T09:19:34.069Z,65.5517578125
2022-10-22T09:20:31.228Z,64.6865234375
2022-10-22T09:21:31.210Z,64.6298828125
2022-10-22T09:22:31.057Z,65.3017578125
2022-10-22T09:23:31.464Z,65.2841796875
2022-10-22T09:24:32.960Z,65.54296875
2022-10-22T09:25:31.134Z,65.28125
2022-10-22T09:26:31.162Z,64.17578125
2022-10-22T09:27:31.130Z,64.1630859375
2022-10-22T09:28:31.392Z,63.90625
2022-10-22T09:29:31.188Z,63.6962890625
2022-10-22T09:30:34.107Z,63.189453125
2022-10-22T09:31:31.206Z,63.7646484375
2022-10-22T09:32:31.460Z,63.111328125
2022-10-22T09:33:31.387Z,62.40234375
2022-10-22T09:34:31.136Z,62.7197265625
2022-10-22T09:35:31.168Z,63.0205078125
2022-10-22T09:36:31.052Z,62.7314453125
2022-10-22T09:37:31.038Z,62.5595703125
2022-10-22T09:38:31.417Z,62.4404296875
2022-10-22T09:39:31.066Z,62.8603515625
2022-10-22T09:40:31.141Z,62.5048828125
2022-10-22T09:41:34.090Z,62.0732421875
2022-10-22T09:42:31.221Z,62.2841796875
2022-10-22T09:43:31.407Z,62.2265625
2022-10-22T09:44:31.117Z,62.2578125
2022-10-22T09:45:31.018Z,62.3095703125
2022-10-22T09:46:31.138Z,62.572265625
2022-10-22T09:47:42.797Z,62.2333984375
2022-10-22T09:48:31.142Z,62.5537109375
2022-10-22T09:49:31.491Z,62.318359375
2022-10-22T09:50:31.209Z,62.7939453125
2022-10-22T09:51:31.129Z,62.8359375
2022-10-22T09:52:34.139Z,62.2392578125
2022-10-22T09:53:31.155Z,61.591796875
2022-10-22T09:54:31.164Z,61.5673828125
2022-10-22T09:55:31.128Z,60.93359375
2022-10-22T09:56:31.144Z,60.943359375
2022-10-22T09:57:31.112Z,60.470703125
2022-10-22T09:58:31.391Z,60.8134765625
2022-10-22T09:59:31.150Z,61.615234375
2022-10-22T10:00:31.131Z,61.58203125
2022-10-22T10:01:31.176Z,61.3115234375
2022-10-22T10:02:38.084Z,61.03125
2022-10-22T10:03:37.124Z,60.5576171875
2022-10-22T10:04:31.207Z,60.6669921875
2022-10-22T10:05:31.118Z,60.7783203125
2022-10-22T10:06:31.156Z,60.9404296875
2022-10-22T10:07:31.230Z,60.8662109375
2022-10-22T10:08:31.318Z,60.78125
2022-10-22T10:09:31.036Z,60.712890625
2022-10-22T10:10:31.042Z,60.771484375
2022-10-22T10:11:31.001Z,60.7958984375
2022-10-22T10:12:31.158Z,60.185546875
2022-10-22T10:13:31.461Z,60.5234375
2022-10-22T10:14:34.050Z,59.8818359375
2022-10-22T10:15:31.172Z,59.544921875
2022-10-22T10:16:31.029Z,59.4296875
2022-10-22T10:17:31.393Z,59.6591796875
2022-10-22T10:18:31.224Z,58.9462890625
2022-10-22T10:19:31.201Z,59.4931640625
2022-10-22T10:20:31.142Z,59.7177734375
2022-10-22T10:21:31.129Z,60.029296875
2022-10-22T10:22:31.171Z,59.62109375
2022-10-22T10:23:31.465Z,59.2060546875
2022-10-22T10:24:31.124Z,58.462890625
2022-10-22T10:25:34.045Z,58.6220703125
2022-10-22T10:26:31.232Z,58.384765625
2022-10-22T10:27:31.250Z,58.4111328125
2022-10-22T10:28:31.161Z,58.080078125
2022-10-22T10:29:31.278Z,58.275390625
2022-10-22T10:30:31.126Z,58.203125
2022-10-22T10:31:34.226Z,57.728515625
2022-10-22T10:32:31.484Z,57.982421875
2022-10-22T10:33:31.388Z,57.4658203125
2022-10-22T10:34:31.017Z,57.3486328125
2022-10-22T10:35:31.158Z,57.5537109375
2022-10-22T10:36:31.242Z,57.849609375
2022-10-22T10:37:31.042Z,57.919921875
2022-10-22T10:38:31.158Z,58.2578125
2022-10-22T10:39:31.190Z,59.2373046875
2022-10-22T10:40:31.161Z,59.3369140625
2022-10-22T10:41:31.180Z,58.4423828125
2022-10-22T10:42:34.114Z,58.0625
2022-10-22T10:43:31.233Z,58.1025390625
2022-10-22T10:44:31.231Z,57.548828125
2022-10-22T10:45:31.110Z,57.5400390625
2022-10-22T10:46:33.456Z,58.1728515625
2022-10-22T10:47:31.483Z,58.861328125
2022-10-22T10:48:31.067Z,58.984375
2022-10-22T10:49:31.026Z,59.0498046875
2022-10-22T10:50:31.022Z,59.154296875
2022-10-22T10:51:31.150Z,58.595703125
2022-10-22T10:52:31.154Z,58.1611328125
2022-10-22T10:53:34.068Z,58.7197265625
2022-10-22T10:54:31.252Z,58.8935546875
2022-10-22T10:55:31.121Z,59.36328125
2022-10-22T10:56:33.441Z,60.08984375
2022-10-22T10:57:31.220Z,60.3740234375
2022-10-22T10:58:31.209Z,60.70703125
2022-10-22T10:59:31.061Z,60.2021484375
2022-10-22T11:00:31.121Z,59.9599609375
2022-10-22T11:01:31.184Z,59.4384765625
2022-10-22T11:02:31.404Z,59.494140625
2022-10-22T11:03:31.469Z,58.826171875
2022-10-22T11:04:34.044Z,58.833984375
2022-10-22T11:05:31.098Z,58.2958984375
2022-10-22T11:06:31.096Z,58.1240234375
2022-10-22T11:07:34.751Z,58.1396484375
2022-10-22T11:08:31.630Z,58.6787109375
2022-10-22T11:09:31.397Z,57.9228515625
2022-10-22T11:10:31.143Z,58.3056640625
2022-10-22T11:11:31.158Z,58.4228515625
2022-10-22T11:12:31.165Z,58.6005859375
2022-10-22T11:13:31.398Z,58.7109375
2022-10-22T11:14:31.257Z,58.8662109375
2022-10-22T11:15:34.156Z,58.70703125
2022-10-22T11:16:31.201Z,58.9521484375
2022-10-22T11:17:31.523Z,59.03125
2022-10-22T11:18:31.064Z,59.5166015625
2022-10-22T11:19:50.203Z,58.974609375
2022-10-22T11:20:31.117Z,58.0576171875
2022-10-22T11:21:31.120Z,57.689453125
2022-10-22T11:22:31.075Z,57.638671875
2022-10-22T11:23:31.471Z,56.6591796875
2022-10-22T11:24:31.023Z,55.4013671875
2022-10-22T11:25:31.125Z,53.7197265625
2022-10-22T11:26:34.076Z,52.458984375
2022-10-22T11:27:31.111Z,50.392578125
2022-10-22T11:28:31.187Z,49.896484375
2022-10-22T11:29:32.940Z,48.67578125
2022-10-22T11:30:31.028Z,47.638671875
2022-10-22T11:31:31.031Z,47.8671875
2022-10-22T11:32:31.173Z,48.234375
2022-10-22T11:33:31.054Z,49.798828125
2022-10-22T11:34:33.822Z,49.8193359375
2022-10-22T11:35:31.144Z,49.2490234375
2022-10-22T11:37:39.533Z,50.44140625
2022-10-22T11:38:39.527Z,50.533203125
2022-10-22T11:39:39.158Z,50.759765625
2022-10-22T11:40:39.092Z,50.646484375
2022-10-22T11:41:39.260Z,51.1162109375
2022-10-22T11:42:42.255Z,51.1953125
2022-10-22T11:43:39.156Z,50.8095703125
2022-10-22T11:44:39.605Z,50.828125
2022-10-22T11:45:39.271Z,51.732421875
2022-10-22T11:46:39.220Z,51.9248046875
2022-10-22T11:47:39.453Z,52.2890625
2022-10-22T11:48:39.083Z,52.5595703125
2022-10-22T11:49:39.179Z,52.0625
2022-10-22T11:50:39.092Z,52.111328125
2022-10-22T11:51:39.061Z,51.2392578125
2022-10-22T11:52:39.095Z,50.8564453125
2022-10-22T11:53:42.120Z,51.6396484375
2022-10-22T11:54:39.161Z,52.3515625
2022-10-22T11:55:39.187Z,51.96484375
2022-10-22T11:56:39.208Z,52.2158203125
2022-10-22T11:57:39.728Z,52.375
2022-10-22T11:58:39.280Z,53.0341796875
2022-10-22T11:59:39.231Z,53.1259765625
2022-10-22T12:00:39.220Z,53.12890625
2022-10-22T12:01:39.292Z,53.939453125
2022-10-22T12:02:39.429Z,54.4521484375
2022-10-22T12:03:39.517Z,55.0009765625
2022-10-22T12:04:42.298Z,56.021484375
2022-10-22T12:05:39.267Z,56.0439453125
2022-10-22T12:06:39.240Z,56.4970703125
2022-10-22T12:07:39.293Z,57.0703125
2022-10-22T12:08:39.502Z,57.5615234375
2022-10-22T12:09:39.369Z,57.5458984375
2022-10-22T12:10:39.062Z,57.7216796875
2022-10-22T12:11:39.079Z,58.24609375
2022-10-22T12:12:39.489Z,58.890625
2022-10-22T12:13:39.276Z,58.564453125
2022-10-22T12:14:39.139Z,58.7294921875
2022-10-22T12:15:42.161Z,58.7109375
2022-10-22T12:16:54.789Z,58.87890625
2022-10-22T12:17:39.287Z,59.1220703125
2022-10-22T12:18:39.164Z,59.130859375
2022-10-22T12:19:39.093Z,59.3828125
2022-10-22T12:20:39.203Z,59.140625
2022-10-22T12:21:39.188Z,59.5732421875
2022-10-22T12:22:39.444Z,58.8173828125
2022-10-22T12:23:39.200Z,57.9013671875
2022-10-22T12:24:39.150Z,56.525390625
2022-10-22T12:25:39.130Z,55.53515625
2022-10-22T12:26:42.218Z,53.8095703125
2022-10-22T12:27:39.657Z,53.166015625
2022-10-22T12:28:39.188Z,52.90234375
2022-10-22T12:29:39.159Z,52.328125
2022-10-22T12:30:39.089Z,51.669921875
2022-10-22T12:31:39.167Z,52.0634765625
2022-10-22T12:32:39.177Z,52.208984375
2022-10-22T12:33:39.065Z,52.767578125
2022-10-22T12:34:39.112Z,52.6162109375
2022-10-22T12:35:39.086Z,52.32421875
2022-10-22T12:36:39.069Z,52.515625
2022-10-22T12:37:42.568Z,52.36328125
2022-10-22T12:38:39.195Z,52.46875
2022-10-22T12:39:39.186Z,52.8466796875
2022-10-22T12:40:39.305Z,53.263671875
2022-10-22T12:41:39.244Z,53.5166015625
2022-10-22T12:42:39.199Z,53.7587890625
2022-10-22T12:43:39.172Z,54.6279296875
2022-10-22T12:44:39.216Z,54.736328125
2022-10-22T12:45:39.293Z,54.697265625
2022-10-22T12:46:39.244Z,54.900390625
2022-10-22T12:47:39.455Z,54.3359375
2022-10-22T12:48:42.108Z,53.4169921875
2022-10-22T12:49:39.308Z,52.5615234375
2022-10-22T12:50:39.297Z,51.7646484375
2022-10-22T12:51:39.339Z,51.16796875
2022-10-22T12:52:39.698Z,50.6337890625
2022-10-22T12:53:39.266Z,49.87109375
2022-10-22T12:54:39.084Z,48.794921875
2022-10-22T12:55:39.086Z,48.7890625
2022-10-22T12:56:39.094Z,48.9501953125
2022-10-22T12:57:39.168Z,47.56640625
2022-10-22T12:58:39.440Z,47.67578125
2022-10-22T12:59:45.843Z,47.2939453125
2022-10-22T13:00:39.267Z,47.8544921875
2022-10-22T13:01:39.098Z,48.921875